Time;durP1;ratioP1;P1;durP2;ratioP2;P2;SDS_P1;SDS_P2;PMS_P1;PMS_P2;Temp;Humidity;BMP_temperature;BMP_pressure;BME280_temperature;BME280_humidity;BME280_pressure;Samples;Min_cycle;Max_cycle;Signal;HPM_P1;HPM_P2
2022/06/20 00:00:34;;;;;;;;;;;;;;;31.91;89.19;97055.00;5045199;28;19971;-83
2022/06/20 00:03:00;;;;;;;;;;;;;;;31.78;90.00;97043.06;5033852;28;19931;-83
2022/06/20 00:05:29;;;;;;;;;;;;;;;31.88;89.60;97044.81;5017615;28;20434;-84
2022/06/20 00:07:55;;;;;;;;;;;;;;;31.39;93.92;97054.75;5043574;28;19983;-83
2022/06/20 00:10:23;;;;;;;;;;;;;;;31.47;92.46;97049.91;5035447;28;19929;-82
2022/06/20 00:12:50;;;;;;;;;;;;;;;31.57;91.92;97067.50;5014825;28;20193;-82
2022/06/20 00:15:21;;;;;;;;;;;;;;;31.68;91.15;97068.09;5019955;28;20008;-82
2022/06/20 00:17:48;;;;;;;;;;;;;;;31.79;90.23;97066.69;5035198;28;19925;-84
2022/06/20 00:20:15;;;;;;;;;;;;;;;31.72;91.10;97064.06;5036855;28;19949;-82
2022/06/20 00:22:43;;;;;;;;;;;;;;;31.73;91.62;97067.59;5043378;28;20182;-82
2022/06/20 00:25:09;;;;;;;;;;;;;;;31.72;91.36;97061.31;5042590;28;20451;-82
2022/06/20 00:27:36;;;;;;;;;;;;;;;31.74;91.53;97064.41;5019854;28;20020;-81
2022/06/20 00:30:03;;;;;;;;;;;;;;;31.72;91.54;97057.75;5021588;28;20011;-82
2022/06/20 00:32:29;;;;;;;;;;;;;;;31.52;92.93;97054.97;5016066;28;19964;-82
2022/06/20 00:34:56;;;;;;;;;;;;;;;31.44;94.13;97051.50;5021249;28;19933;-83
2022/06/20 00:37:22;;;;;;;;;;;;;;;31.35;94.50;97048.50;5029021;28;19971;-82
2022/06/20 00:39:51;;;;;;;;;;;;;;;31.37;94.38;97051.63;5033472;28;20016;-82
2022/06/20 00:42:17;;;;;;;;;;;;;;;31.35;95.14;97054.03;5009166;28;20285;-83
2022/06/20 00:44:46;;;;;;;;;;;;;;;31.36;94.87;97044.56;5027777;28;19935;-83
2022/06/20 00:47:15;;;;;;;;;;;;;;;31.39;94.44;97052.00;5024242;28;20028;-82
2022/06/20 00:49:44;;;;;;;;;;;;;;;31.30;95.15;97042.69;5020331;28;19982;-82
2022/06/20 00:52:13;;;;;;;;;;;;;;;31.13;96.64;97052.84;5022658;28;20028;-82
2022/06/20 00:54:42;;;;;;;;;;;;;;;31.08;96.74;97049.75;5007196;28;19999;-83
2022/06/20 00:57:14;;;;;;;;;;;;;;;31.13;96.20;97049.28;5036630;28;19925;-82
2022/06/20 00:59:43;;;;;;;;;;;;;;;30.92;97.93;97051.13;5043216;28;19974;-83
2022/06/20 01:02:11;;;;;;;;;;;;;;;31.04;96.82;97047.81;5039553;28;20380;-84
2022/06/20 01:04:39;;;;;;;;;;;;;;;31.13;96.19;97052.06;5025246;28;20040;-83
2022/06/20 01:07:08;;;;;;;;;;;;;;;31.10;96.29;97048.16;5033346;28;19931;-82
2022/06/20 01:09:37;;;;;;;;;;;;;;;31.17;95.42;97037.00;5004386;28;20008;-82
2022/06/20 01:12:04;;;;;;;;;;;;;;;31.21;95.19;97036.94;5035789;28;20418;-82
2022/06/20 01:14:35;;;;;;;;;;;;;;;31.21;94.84;97032.19;5019453;28;20283;-83
2022/06/20 01:17:02;;;;;;;;;;;;;;;31.19;95.30;97039.34;5000178;28;19928;-81
2022/06/20 01:19:36;;;;;;;;;;;;;;;31.26;94.56;97028.19;5021720;28;20012;-83
2022/06/20 01:22:08;;;;;;;;;;;;;;;31.28;93.74;97025.78;5022281;28;20490;-82
2022/06/20 01:24:44;;;;;;;;;;;;;;;31.22;94.17;97027.47;5026174;28;19929;-83
2022/06/20 01:27:15;;;;;;;;;;;;;;;31.23;93.96;97029.00;5022434;28;19933;-82
2022/06/20 01:29:41;;;;;;;;;;;;;;;31.27;93.52;97030.53;5032447;28;20397;-83
2022/06/20 01:32:08;;;;;;;;;;;;;;;31.24;93.55;97028.59;5036177;28;19939;-83
2022/06/20 01:34:35;;;;;;;;;;;;;;;31.23;93.63;97034.53;5043841;28;20392;-82
2022/06/20 01:39:48;;;;;;;;;;;;;;;31.15;93.59;97022.84;5041255;28;20241;-82
2022/06/20 01:42:18;;;;;;;;;;;;;;;31.01;94.29;97017.56;5028724;28;20081;-83
2022/06/20 01:44:46;;;;;;;;;;;;;;;30.82;95.10;97023.75;5004416;28;19956;-82
2022/06/20 01:47:13;;;;;;;;;;;;;;;30.37;98.18;97025.94;5027720;28;19925;-82
2022/06/20 01:49:40;;;;;;;;;;;;;;;30.46;98.55;97028.97;5046675;28;20559;-83
2022/06/20 01:52:09;;;;;;;;;;;;;;;30.52;97.89;97027.31;5058381;28;20489;-82
2022/06/20 01:54:37;;;;;;;;;;;;;;;30.67;96.73;97025.91;5026993;28;20003;-83
2022/06/20 01:57:03;;;;;;;;;;;;;;;30.78;95.57;97026.56;5022310;28;20019;-82
2022/06/20 01:59:35;;;;;;;;;;;;;;;30.86;94.91;97033.50;5030693;28;19925;-83
2022/06/20 02:02:01;;;;;;;;;;;;;;;30.95;93.95;97030.25;5043884;28;19972;-83
2022/06/20 02:04:31;;;;;;;;;;;;;;;30.92;93.92;97031.84;5042836;28;19960;-82
2022/06/20 02:06:57;;;;;;;;;;;;;;;30.88;94.18;97031.13;5037201;28;19980;-81
2022/06/20 02:09:24;;;;;;;;;;;;;;;30.91;93.78;97027.53;5033782;28;20530;-82
2022/06/20 02:11:51;;;;;;;;;;;;;;;30.80;94.68;97026.91;5036020;28;19968;-81
2022/06/20 02:14:18;;;;;;;;;;;;;;;30.73;95.18;97024.25;5032372;28;20271;-82
2022/06/20 02:16:50;;;;;;;;;;;;;;;30.75;94.93;97024.63;5031783;28;20044;-82
2022/06/20 02:19:17;;;;;;;;;;;;;;;30.46;96.69;97017.97;5030943;28;19986;-82
2022/06/20 02:21:45;;;;;;;;;;;;;;;30.59;96.59;97023.69;5046231;28;20035;-82
2022/06/20 02:24:14;;;;;;;;;;;;;;;30.67;95.74;97023.16;5035602;28;19932;-82
2022/06/20 02:26:42;;;;;;;;;;;;;;;30.72;95.32;97025.47;5026017;28;19964;-82
2022/06/20 02:29:21;;;;;;;;;;;;;;;30.67;95.69;97033.44;5039126;28;20023;-82
2022/06/20 02:31:49;;;;;;;;;;;;;;;30.62;96.27;97031.13;5033025;28;19924;-82
2022/06/20 02:34:15;;;;;;;;;;;;;;;30.64;96.39;97028.75;5031725;28;19938;-83
2022/06/20 02:36:42;;;;;;;;;;;;;;;30.67;96.00;97034.19;5035553;28;20023;-82
2022/06/20 02:39:08;;;;;;;;;;;;;;;30.61;96.09;97024.81;5041402;28;19978;-82
2022/06/20 02:41:35;;;;;;;;;;;;;;;30.49;97.03;97025.41;5032567;28;19931;-82
2022/06/20 02:44:06;;;;;;;;;;;;;;;30.63;96.10;97021.66;5043859;28;19928;-83
2022/06/20 02:46:32;;;;;;;;;;;;;;;30.63;95.73;97033.47;5043797;28;19959;-84
2022/06/20 02:49:01;;;;;;;;;;;;;;;30.52;96.35;97036.38;5017882;28;20132;-83
2022/06/20 02:51:31;;;;;;;;;;;;;;;30.59;95.82;97035.50;5017270;28;20027;-81
2022/06/20 02:53:59;;;;;;;;;;;;;;;30.56;95.89;97027.28;5037436;28;20137;-82
2022/06/20 02:56:28;;;;;;;;;;;;;;;30.51;96.04;97042.31;5025201;28;20673;-81
2022/06/20 02:58:57;;;;;;;;;;;;;;;30.48;96.30;97040.38;5028347;28;20020;-82
2022/06/20 03:01:25;;;;;;;;;;;;;;;30.48;96.24;97045.91;5030507;28;20020;-82
2022/06/20 03:03:54;;;;;;;;;;;;;;;30.45;96.19;97047.47;5035532;28;19939;-82
2022/06/20 03:06:24;;;;;;;;;;;;;;;30.41;96.61;97046.78;5037635;28;19931;-83
2022/06/20 03:08:51;;;;;;;;;;;;;;;30.45;96.67;97046.72;5017810;28;19936;-84
2022/06/20 03:11:18;;;;;;;;;;;;;;;30.56;95.64;97038.28;5045290;28;19925;-82
2022/06/20 03:13:44;;;;;;;;;;;;;;;30.53;96.15;97042.66;5038752;28;19931;-84
2022/06/20 03:16:11;;;;;;;;;;;;;;;30.16;97.61;97045.47;5037390;28;20284;-83
2022/06/20 03:18:40;;;;;;;;;;;;;;;29.59;100.00;97045.28;5041942;28;19925;-85
2022/06/20 03:21:07;;;;;;;;;;;;;;;29.65;100.00;97049.94;5034781;28;20430;-83
2022/06/20 03:23:35;;;;;;;;;;;;;;;29.94;100.00;97033.94;5024467;28;20028;-82
2022/06/20 03:26:02;;;;;;;;;;;;;;;30.09;99.10;97040.06;5037259;28;19963;-83
2022/06/20 03:28:31;;;;;;;;;;;;;;;30.18;98.22;97037.56;5045593;28;19924;-83
2022/06/20 03:30:58;;;;;;;;;;;;;;;30.28;97.54;97037.47;5036821;28;19929;-83
2022/06/20 03:33:24;;;;;;;;;;;;;;;30.29;97.33;97046.50;5029946;28;19939;-82
2022/06/20 03:35:53;;;;;;;;;;;;;;;30.25;97.18;97043.00;5031379;28;19928;-83
2022/06/20 03:38:19;;;;;;;;;;;;;;;30.31;97.08;97044.09;5015873;28;19959;-83
2022/06/20 03:40:47;;;;;;;;;;;;;;;30.38;96.45;97050.31;5034557;28;19975;-84
2022/06/20 03:43:16;;;;;;;;;;;;;;;30.48;95.48;97040.38;5008003;28;19939;-82
2022/06/20 03:45:45;;;;;;;;;;;;;;;30.47;95.08;97039.59;5026288;28;20020;-82
2022/06/20 03:48:13;;;;;;;;;;;;;;;30.43;94.95;97033.34;5017642;28;20680;-83
2022/06/20 03:50:42;;;;;;;;;;;;;;;30.30;95.89;97034.28;5037693;28;20550;-83
2022/06/20 03:53:11;;;;;;;;;;;;;;;30.42;95.34;97042.03;5014522;28;19924;-81
2022/06/20 03:55:41;;;;;;;;;;;;;;;30.46;94.05;97037.25;5038290;28;19924;-83
2022/06/20 03:58:12;;;;;;;;;;;;;;;30.53;93.54;97039.91;5036533;28;20544;-82
2022/06/20 04:00:42;;;;;;;;;;;;;;;30.49;93.63;97053.72;5022786;28;20676;-82
2022/06/20 04:03:11;;;;;;;;;;;;;;;30.48;93.03;97057.66;5031751;28;20037;-82
2022/06/20 04:05:42;;;;;;;;;;;;;;;30.43;93.68;97054.59;5031240;28;20012;-81
2022/06/20 04:08:12;;;;;;;;;;;;;;;30.43;93.32;97051.84;5033963;28;19935;-82
2022/06/20 04:10:58;;;;;;;;;;;;;;;30.28;93.96;97048.47;5039017;28;20124;-84
2022/06/20 04:13:29;;;;;;;;;;;;;;;30.25;94.57;97043.78;5042623;28;20308;-82
2022/06/20 04:15:58;;;;;;;;;;;;;;;29.82;98.18;97028.97;5040300;28;19931;-82
2022/06/20 04:18:28;;;;;;;;;;;;;;;29.10;100.00;97019.78;5030442;28;19928;-81
2022/06/20 04:20:59;;;;;;;;;;;;;;;28.96;100.00;97006.16;5021522;28;20059;-82
2022/06/20 04:23:29;;;;;;;;;;;;;;;28.85;100.00;97003.50;5023519;28;20145;-82
2022/06/20 04:25:59;;;;;;;;;;;;;;;28.71;100.00;97008.31;5018820;28;19957;-82
2022/06/20 04:28:33;;;;;;;;;;;;;;;29.23;100.00;97022.81;5033617;28;20650;-82
2022/06/20 04:31:02;;;;;;;;;;;;;;;28.50;100.00;97009.22;5036090;28;19936;-82
2022/06/20 04:33:32;;;;;;;;;;;;;;;28.65;100.00;97031.91;5024948;28;19972;-82
2022/06/20 04:36:04;;;;;;;;;;;;;;;28.79;100.00;97020.81;5022475;28;20384;-84
2022/06/20 04:38:33;;;;;;;;;;;;;;;28.63;100.00;97035.00;5030909;28;19925;-83
2022/06/20 04:41:01;;;;;;;;;;;;;;;28.91;100.00;97037.59;5017683;28;19929;-82
2022/06/20 04:43:32;;;;;;;;;;;;;;;28.67;100.00;97027.56;5024168;28;20682;-81
2022/06/20 04:46:02;;;;;;;;;;;;;;;28.54;100.00;97020.94;5037145;28;19929;-82
2022/06/20 04:48:28;;;;;;;;;;;;;;;28.53;100.00;97029.59;5021191;28;20011;-83
2022/06/20 04:50:57;;;;;;;;;;;;;;;28.98;100.00;97038.72;5036937;28;20100;-84
2022/06/20 04:53:24;;;;;;;;;;;;;;;29.34;100.00;97043.56;5035067;28;19935;-82
2022/06/20 04:55:51;;;;;;;;;;;;;;;29.52;100.00;97054.41;5016513;28;19939;-81
2022/06/20 04:58:20;;;;;;;;;;;;;;;29.65;100.00;97074.72;5033399;28;20031;-83
2022/06/20 05:00:50;;;;;;;;;;;;;;;29.65;100.00;97088.47;5030469;28;19964;-84
2022/06/20 05:03:19;;;;;;;;;;;;;;;29.70;100.00;97101.81;5037040;28;19931;-84
2022/06/20 05:05:48;;;;;;;;;;;;;;;29.80;100.00;97139.44;5034668;28;19929;-83
2022/06/20 05:08:16;;;;;;;;;;;;;;;29.54;100.00;97093.28;5037164;28;20052;-82
2022/06/20 05:10:45;;;;;;;;;;;;;;;29.66;100.00;97125.03;5026864;28;20032;-83
2022/06/20 05:13:14;;;;;;;;;;;;;;;29.66;100.00;97112.06;5029077;28;19939;-82
2022/06/20 05:15:41;;;;;;;;;;;;;;;29.69;100.00;97110.44;5030923;28;20432;-82
2022/06/20 05:18:15;;;;;;;;;;;;;;;28.59;100.00;97091.16;5038755;28;20192;-84
2022/06/20 05:20:43;;;;;;;;;;;;;;;28.76;100.00;97091.09;5047273;28;19929;-83
2022/06/20 05:23:12;;;;;;;;;;;;;;;29.15;100.00;97095.56;5037848;28;20100;-82
2022/06/20 05:25:39;;;;;;;;;;;;;;;29.40;100.00;97093.44;5033444;28;20032;-84
2022/06/20 05:28:08;;;;;;;;;;;;;;;29.40;100.00;97087.94;5026028;28;20020;-83
2022/06/20 05:30:36;;;;;;;;;;;;;;;29.26;100.00;97094.31;5032361;28;19932;-83
2022/06/20 05:33:06;;;;;;;;;;;;;;;29.41;100.00;97084.75;5030661;28;19964;-83
2022/06/20 05:35:36;;;;;;;;;;;;;;;29.65;100.00;97082.22;5033971;28;19929;-83
2022/06/20 05:38:05;;;;;;;;;;;;;;;29.81;100.00;97087.91;5032213;28;19935;-82
2022/06/20 05:40:34;;;;;;;;;;;;;;;29.95;100.00;97099.63;5030184;28;20763;-82
2022/06/20 05:43:01;;;;;;;;;;;;;;;30.12;100.00;97094.31;5035991;28;19999;-82
2022/06/20 05:45:29;;;;;;;;;;;;;;;30.41;100.00;97096.34;5033741;28;19965;-82
2022/06/20 05:47:58;;;;;;;;;;;;;;;30.36;100.00;97093.25;5036868;28;19929;-82
2022/06/20 05:50:34;;;;;;;;;;;;;;;30.29;100.00;97099.63;5016929;28;20257;-81
2022/06/20 05:53:03;;;;;;;;;;;;;;;30.51;100.00;97116.72;5036938;28;20084;-82
2022/06/20 05:55:34;;;;;;;;;;;;;;;30.48;100.00;97106.50;5023004;28;19929;-81
2022/06/20 05:58:01;;;;;;;;;;;;;;;30.59;100.00;97117.38;5023536;28;19929;-82
2022/06/20 06:00:30;;;;;;;;;;;;;;;30.71;100.00;97120.38;5025868;28;20530;-82
2022/06/20 06:02:58;;;;;;;;;;;;;;;30.72;100.00;97130.22;5031453;28;19933;-81
2022/06/20 06:05:28;;;;;;;;;;;;;;;30.52;100.00;97126.50;5042600;28;19928;-83
2022/06/20 06:07:58;;;;;;;;;;;;;;;30.45;100.00;97118.34;5032173;28;20041;-82
2022/06/20 06:10:32;;;;;;;;;;;;;;;30.39;100.00;97120.75;5023963;28;20011;-83
2022/06/20 06:13:02;;;;;;;;;;;;;;;30.21;100.00;97130.38;5041997;28;19929;-80
2022/06/20 06:15:33;;;;;;;;;;;;;;;30.15;100.00;97134.78;5033413;28;19928;-82
2022/06/20 06:18:01;;;;;;;;;;;;;;;29.96;100.00;97139.69;5031578;28;19929;-82
2022/06/20 06:20:29;;;;;;;;;;;;;;;30.07;100.00;97158.09;5035843;28;20039;-82
2022/06/20 06:22:59;;;;;;;;;;;;;;;29.85;100.00;97155.56;5038806;28;19964;-83
2022/06/20 06:25:27;;;;;;;;;;;;;;;29.93;100.00;97153.50;5039674;28;19948;-82
2022/06/20 06:27:57;;;;;;;;;;;;;;;30.03;100.00;97165.59;5028330;28;19932;-82
2022/06/20 06:30:27;;;;;;;;;;;;;;;30.19;100.00;97165.84;5020678;28;20025;-82
2022/06/20 06:32:57;;;;;;;;;;;;;;;30.23;100.00;97183.91;5035724;28;19982;-82
2022/06/20 06:35:26;;;;;;;;;;;;;;;30.17;100.00;97185.53;5037146;28;19972;-82
2022/06/20 06:37:56;;;;;;;;;;;;;;;30.13;98.50;97189.50;5043560;28;19935;-81
2022/06/20 06:40:26;;;;;;;;;;;;;;;30.36;95.68;97189.66;5044075;28;20023;-84
2022/06/20 06:42:55;;;;;;;;;;;;;;;30.12;92.84;97202.50;5035701;28;20459;-81
2022/06/20 06:45:24;;;;;;;;;;;;;;;30.36;90.41;97208.97;5026021;28;19932;-82
2022/06/20 06:47:56;;;;;;;;;;;;;;;30.19;90.14;97205.19;5022630;28;20028;-82
2022/06/20 06:50:27;;;;;;;;;;;;;;;30.18;88.66;97214.63;5038785;28;19924;-82
2022/06/20 06:52:58;;;;;;;;;;;;;;;30.42;86.50;97210.09;5017570;28;20237;-82
2022/06/20 06:55:30;;;;;;;;;;;;;;;30.38;84.60;97217.59;5030216;28;19925;-81
2022/06/20 06:58:00;;;;;;;;;;;;;;;30.63;82.47;97218.13;5038985;28;19978;-83
2022/06/20 07:00:31;;;;;;;;;;;;;;;30.60;81.01;97213.44;5020014;28;20090;-81
2022/06/20 07:02:59;;;;;;;;;;;;;;;30.63;77.15;97222.84;5035601;28;19929;-82
2022/06/20 07:05:29;;;;;;;;;;;;;;;30.77;75.29;97230.94;5036180;28;20392;-80
2022/06/20 07:07:57;;;;;;;;;;;;;;;30.88;74.80;97221.38;5040548;28;20411;-82
2022/06/20 07:10:26;;;;;;;;;;;;;;;31.00;71.01;97226.38;5021342;28;19999;-82
2022/06/20 07:12:53;;;;;;;;;;;;;;;31.02;70.64;97236.97;5041939;28;20607;-82
2022/06/20 07:15:21;;;;;;;;;;;;;;;31.00;69.73;97209.03;5042891;28;19947;-82
2022/06/20 07:17:51;;;;;;;;;;;;;;;31.15;67.53;97210.41;5020338;28;20488;-82
2022/06/20 07:20:18;;;;;;;;;;;;;;;31.21;68.10;97205.19;5036436;28;19925;-83
2022/06/20 07:22:47;;;;;;;;;;;;;;;31.22;64.14;97199.28;5031849;28;20012;-82
2022/06/20 07:25:16;;;;;;;;;;;;;;;31.00;64.33;97193.28;5041572;28;20023;-82
2022/06/20 07:27:44;;;;;;;;;;;;;;;30.72;63.40;97187.31;5012716;28;19951;-83
2022/06/20 07:30:12;;;;;;;;;;;;;;;30.61;63.32;97197.69;5020151;28;19925;-83
2022/06/20 07:32:41;;;;;;;;;;;;;;;30.70;63.85;97190.47;5040965;28;20427;-81
2022/06/20 07:35:11;;;;;;;;;;;;;;;31.03;62.72;97197.97;5024829;28;19925;-84
2022/06/20 07:37:40;;;;;;;;;;;;;;;31.18;62.82;97203.28;5025794;28;20404;-82
2022/06/20 07:40:11;;;;;;;;;;;;;;;30.84;62.14;97211.56;5017015;28;19979;-82
2022/06/20 07:42:40;;;;;;;;;;;;;;;30.83;63.48;97202.50;5028889;28;19975;-82
2022/06/20 07:45:10;;;;;;;;;;;;;;;30.83;62.77;97202.50;5025630;28;20020;-84
2022/06/20 07:47:38;;;;;;;;;;;;;;;30.93;62.70;97198.84;5028338;28;20323;-81
2022/06/20 07:50:07;;;;;;;;;;;;;;;30.98;62.24;97205.88;5009833;28;20120;-83
2022/06/20 07:52:37;;;;;;;;;;;;;;;31.10;60.73;97199.06;5031175;28;20419;-83
2022/06/20 07:55:06;;;;;;;;;;;;;;;31.02;58.04;97193.63;5026312;28;19929;-82
2022/06/20 07:57:33;;;;;;;;;;;;;;;31.13;61.01;97198.22;5023783;28;20170;-84
2022/06/20 08:00:05;;;;;;;;;;;;;;;31.39;59.47;97208.47;5041198;28;19931;-82
2022/06/20 08:02:33;;;;;;;;;;;;;;;31.48;59.97;97201.25;5025483;28;20434;-82
2022/06/20 08:05:01;;;;;;;;;;;;;;;31.57;59.45;97217.31;5012766;28;20024;-82
2022/06/20 08:07:29;;;;;;;;;;;;;;;31.56;58.91;97204.72;5032903;28;20028;-83
2022/06/20 08:09:59;;;;;;;;;;;;;;;31.72;58.63;97224.19;5040932;28;20038;-82
2022/06/20 08:12:28;;;;;;;;;;;;;;;31.78;58.28;97219.75;5038423;28;19939;-81
2022/06/20 08:14:59;;;;;;;;;;;;;;;31.72;58.64;97237.22;5035754;28;20020;-82
2022/06/20 08:17:26;;;;;;;;;;;;;;;31.79;58.39;97234.31;5041521;28;20003;-82
2022/06/20 08:19:52;;;;;;;;;;;;;;;31.80;57.85;97244.97;5018740;28;19968;-82
2022/06/20 08:22:21;;;;;;;;;;;;;;;31.75;57.71;97245.44;5022405;28;20046;-82
2022/06/20 08:24:50;;;;;;;;;;;;;;;31.69;57.41;97251.84;5038538;28;20285;-83
2022/06/20 08:27:24;;;;;;;;;;;;;;;31.75;57.07;97244.66;5026261;28;20685;-82
2022/06/20 08:29:54;;;;;;;;;;;;;;;31.48;57.71;97255.66;5036440;28;19955;-82
2022/06/20 08:32:25;;;;;;;;;;;;;;;31.26;58.38;97266.19;5017330;28;20370;-82
2022/06/20 08:34:54;;;;;;;;;;;;;;;31.27;57.92;97270.53;5030803;28;20273;-82
2022/06/20 08:37:24;;;;;;;;;;;;;;;31.27;58.27;97275.25;5029067;28;20021;-84
2022/06/20 08:39:53;;;;;;;;;;;;;;;31.29;57.85;97264.63;5013735;28;19983;-81
2022/06/20 08:42:47;;;;;;;;;;;;;;;31.20;58.10;97261.56;5034148;28;20497;-82
2022/06/20 08:45:22;;;;;;;;;;;;;;;31.26;58.62;97280.00;4998944;28;20510;-82
2022/06/20 08:48:09;;;;;;;;;;;;;;;31.29;58.58;97297.72;5030110;28;20023;-83
2022/06/20 08:50:42;;;;;;;;;;;;;;;31.25;58.54;97308.00;5027704;28;20031;-82
2022/06/20 08:53:23;;;;;;;;;;;;;;;31.19;58.35;97317.94;5037332;28;19951;-83
2022/06/20 08:55:59;;;;;;;;;;;;;;;31.03;59.29;97326.78;5039566;28;19925;-82
2022/06/20 08:58:31;;;;;;;;;;;;;;;30.98;57.88;97330.78;5037060;28;19925;-81
2022/06/20 09:01:02;;;;;;;;;;;;;;;30.97;58.96;97331.97;5024470;28;19978;-82
2022/06/20 09:03:40;;;;;;;;;;;;;;;31.09;59.08;97332.63;5022521;28;20052;-80
2022/06/20 09:06:24;;;;;;;;;;;;;;;31.10;59.61;97334.22;5036107;28;20399;-80
2022/06/20 09:09:05;;;;;;;;;;;;;;;31.11;58.55;97335.75;5035182;28;20110;-82
2022/06/20 09:11:50;;;;;;;;;;;;;;;31.20;58.34;97344.31;5034003;28;19952;-79
2022/06/20 09:14:22;;;;;;;;;;;;;;;31.33;57.33;97331.56;5036284;28;20221;-81
2022/06/20 09:16:55;;;;;;;;;;;;;;;31.33;56.43;97331.56;5030893;28;19971;-82
2022/06/20 09:19:32;;;;;;;;;;;;;;;31.11;56.95;97330.22;5038699;28;19929;-83
2022/06/20 09:22:05;;;;;;;;;;;;;;;31.15;57.56;97322.72;5042320;28;19932;-81
2022/06/20 09:24:39;;;;;;;;;;;;;;;31.00;57.66;97328.41;5027339;28;20628;-81
2022/06/20 09:27:08;;;;;;;;;;;;;;;30.96;57.09;97322.13;5036457;28;20439;-80
2022/06/20 09:29:52;;;;;;;;;;;;;;;31.07;56.55;97332.28;5014952;28;19972;-82
2022/06/20 09:32:37;;;;;;;;;;;;;;;30.95;56.11;97328.84;5026699;28;20171;-81
2022/06/20 09:35:18;;;;;;;;;;;;;;;30.93;55.38;97322.94;5035292;28;20020;-81
2022/06/20 09:37:53;;;;;;;;;;;;;;;31.13;53.39;97316.84;5004571;28;20100;-82
2022/06/20 09:40:24;;;;;;;;;;;;;;;31.01;52.93;97316.16;5033941;28;19979;-82
2022/06/20 09:42:53;;;;;;;;;;;;;;;30.95;55.02;97322.53;5034894;28;19939;-82
2022/06/20 09:45:27;;;;;;;;;;;;;;;30.97;54.55;97322.94;5026893;28;20264;-83
2022/06/20 09:48:01;;;;;;;;;;;;;;;31.03;54.47;97321.28;5035004;28;20101;-84
2022/06/20 09:50:45;;;;;;;;;;;;;;;31.02;53.62;97330.72;5027412;28;20223;-81
2022/06/20 09:53:25;;;;;;;;;;;;;;;30.92;53.56;97326.88;5023006;28;19939;-83
2022/06/20 09:55:56;;;;;;;;;;;;;;;30.92;53.31;97320.56;5010617;28;19964;-82
2022/06/20 09:58:27;;;;;;;;;;;;;;;30.94;53.47;97310.75;5037962;28;20039;-83
2022/06/20 10:00:57;;;;;;;;;;;;;;;30.96;54.17;97313.06;5013689;28;19935;-83
2022/06/20 10:03:30;;;;;;;;;;;;;;;30.99;53.61;97318.56;5036667;28;20013;-83
2022/06/20 10:06:01;;;;;;;;;;;;;;;31.00;53.19;97317.38;5044066;28;19955;-83
2022/06/20 10:08:33;;;;;;;;;;;;;;;30.88;53.31;97317.88;5027401;28;20109;-84
2022/06/20 10:11:04;;;;;;;;;;;;;;;30.82;52.82;97308.50;5034778;28;19988;-83
2022/06/20 10:13:39;;;;;;;;;;;;;;;30.88;53.55;97309.59;5032828;28;20476;-84
2022/06/20 10:16:10;;;;;;;;;;;;;;;30.95;53.78;97312.28;5026845;28;20088;-82
2022/06/20 10:18:41;;;;;;;;;;;;;;;30.96;54.29;97324.91;5028283;28;19983;-82
2022/06/20 10:21:12;;;;;;;;;;;;;;;30.78;55.08;97323.50;5010345;28;19933;-82
2022/06/20 10:23:54;;;;;;;;;;;;;;;30.85;54.91;97323.41;5028180;28;19925;-81
2022/06/20 10:26:29;;;;;;;;;;;;;;;30.86;53.90;97330.47;5022837;28;20032;-82
2022/06/20 10:28:59;;;;;;;;;;;;;;;30.75;53.42;97321.56;5028905;28;20795;-83
2022/06/20 10:31:32;;;;;;;;;;;;;;;30.67;52.74;97320.84;5010664;28;20050;-83
2022/06/20 10:34:04;;;;;;;;;;;;;;;30.82;53.57;97319.50;5010561;28;20004;-84
2022/06/20 10:36:40;;;;;;;;;;;;;;;30.83;53.53;97315.56;5020132;28;19972;-83
2022/06/20 10:39:10;;;;;;;;;;;;;;;30.87;52.58;97323.78;5035539;28;19935;-82
2022/06/20 10:41:44;;;;;;;;;;;;;;;30.92;52.94;97326.88;5021629;28;20003;-82
2022/06/20 10:44:17;;;;;;;;;;;;;;;30.90;54.35;97315.47;5029585;28;20001;-83
2022/06/20 10:46:46;;;;;;;;;;;;;;;30.96;53.57;97304.81;5014478;28;19971;-86
2022/06/20 10:49:28;;;;;;;;;;;;;;;31.04;53.77;97304.31;5008953;28;19929;-83
2022/06/20 10:52:02;;;;;;;;;;;;;;;31.16;53.19;97304.97;5024844;28;19933;-82
2022/06/20 10:54:43;;;;;;;;;;;;;;;31.14;53.57;97293.56;5020850;28;20158;-82
2022/06/20 10:57:16;;;;;;;;;;;;;;;31.23;53.48;97305.66;5022838;28;19925;-83
2022/06/20 10:59:47;;;;;;;;;;;;;;;31.27;52.90;97291.81;5012523;28;20308;-84
2022/06/20 11:02:22;;;;;;;;;;;;;;;31.37;52.91;97293.66;5013521;28;20431;-83
2022/06/20 11:04:57;;;;;;;;;;;;;;;31.41;52.91;97299.94;5036685;28;20456;-83
2022/06/20 11:07:27;;;;;;;;;;;;;;;31.32;52.99;97285.84;5019072;28;20053;-81
2022/06/20 11:10:03;;;;;;;;;;;;;;;31.39;52.53;97294.03;5034710;28;20027;-82
2022/06/20 11:12:35;;;;;;;;;;;;;;;31.43;54.21;97287.28;5030779;28;19933;-82
2022/06/20 11:15:08;;;;;;;;;;;;;;;31.34;54.62;97289.75;5025928;28;20141;-82
2022/06/20 11:17:40;;;;;;;;;;;;;;;31.53;53.87;97296.63;5028829;28;19924;-82
2022/06/20 11:20:17;;;;;;;;;;;;;;;31.45;52.41;97293.16;5025823;28;19935;-83
2022/06/20 11:22:47;;;;;;;;;;;;;;;31.47;53.96;97292.75;5035465;28;20618;-83
2022/06/20 11:25:24;;;;;;;;;;;;;;;31.51;53.19;97290.72;5015757;28;20217;-83
2022/06/20 11:27:59;;;;;;;;;;;;;;;31.53;53.50;97297.41;5022056;28;20085;-83
2022/06/20 11:30:30;;;;;;;;;;;;;;;31.60;53.44;97288.22;5031147;28;19968;-84
2022/06/20 11:33:03;;;;;;;;;;;;;;;31.49;54.36;97282.09;5019020;28;19933;-83
2022/06/20 11:35:36;;;;;;;;;;;;;;;31.54;54.37;97284.38;5033844;28;20386;-83
2022/06/20 11:38:25;;;;;;;;;;;;;;;31.59;53.78;97288.66;5021468;28;19928;-83
2022/06/20 11:40:57;;;;;;;;;;;;;;;31.64;53.42;97286.22;5025021;28;20452;-84
2022/06/20 11:43:39;;;;;;;;;;;;;;;31.66;53.25;97280.28;5037409;28;19924;-84
2022/06/20 11:46:12;;;;;;;;;;;;;;;31.55;53.72;97283.97;5026117;28;19925;-83
2022/06/20 11:48:50;;;;;;;;;;;;;;;31.63;52.29;97286.66;5012802;28;20311;-83
2022/06/20 11:51:21;;;;;;;;;;;;;;;31.59;52.04;97289.44;5025788;28;20015;-83
2022/06/20 11:53:53;;;;;;;;;;;;;;;31.65;53.43;97301.59;5024373;28;20439;-82
2022/06/20 11:56:23;;;;;;;;;;;;;;;31.53;54.06;97282.84;5031160;28;20023;-83
2022/06/20 11:59:04;;;;;;;;;;;;;;;31.72;53.21;97295.97;5026385;28;20430;-84
2022/06/20 12:01:33;;;;;;;;;;;;;;;31.74;53.05;97284.50;5028285;28;20104;-83
2022/06/20 12:04:04;;;;;;;;;;;;;;;31.74;53.42;97284.50;5035458;28;19964;-83
2022/06/20 12:06:34;;;;;;;;;;;;;;;31.77;53.90;97278.94;5037222;28;19932;-82
2022/06/20 12:09:03;;;;;;;;;;;;;;;31.78;54.21;97268.66;5036872;28;20052;-82
2022/06/20 12:11:39;;;;;;;;;;;;;;;31.75;54.65;97248.19;5034367;28;20019;-81
2022/06/20 12:14:10;;;;;;;;;;;;;;;31.89;55.70;97259.00;5011753;28;20012;-83
2022/06/20 12:16:48;;;;;;;;;;;;;;;31.86;54.36;97259.84;5036485;28;20391;-82
2022/06/20 12:24:52;;;;;;;;;;;;;;;31.86;55.20;97254.31;5027492;28;19928;-82
2022/06/20 12:27:20;;;;;;;;;;;;;;;31.76;55.62;97263.56;5034685;28;19929;-82
2022/06/20 12:29:47;;;;;;;;;;;;;;;31.72;54.90;97259.28;5028749;28;20012;-82
2022/06/20 12:32:17;;;;;;;;;;;;;;;31.83;54.64;97260.69;5005597;28;19931;-82
2022/06/20 12:34:46;;;;;;;;;;;;;;;31.86;54.81;97270.09;5024391;28;19935;-83
2022/06/20 12:37:18;;;;;;;;;;;;;;;31.82;54.09;97256.34;5023131;28;20023;-83
2022/06/20 12:39:47;;;;;;;;;;;;;;;31.74;54.62;97260.44;5030425;28;19982;-82
2022/06/20 12:42:18;;;;;;;;;;;;;;;31.91;53.89;97259.38;5020424;28;20471;-83
2022/06/20 12:44:51;;;;;;;;;;;;;;;31.87;54.18;97268.91;5029977;28;19931;-85
2022/06/20 12:47:33;;;;;;;;;;;;;;;31.74;55.13;97273.47;5034808;28;20270;-83
2022/06/20 12:50:04;;;;;;;;;;;;;;;31.92;54.31;97255.41;5007154;28;20007;-82
2022/06/20 12:52:35;;;;;;;;;;;;;;;31.72;55.09;97248.25;5032548;28;20282;-85
2022/06/20 12:55:08;;;;;;;;;;;;;;;31.91;53.81;97262.13;5025292;28;19990;-83
2022/06/20 12:57:46;;;;;;;;;;;;;;;31.90;52.87;97270.84;5027414;28;19929;-83
2022/06/20 13:00:22;;;;;;;;;;;;;;;31.90;54.21;97268.88;5028573;28;20011;-82
2022/06/20 13:03:13;;;;;;;;;;;;;;;31.94;53.03;97250.25;5012254;28;20012;-84
2022/06/20 13:05:48;;;;;;;;;;;;;;;31.98;52.57;97259.25;4976770;28;20131;-83
2022/06/20 13:08:28;;;;;;;;;;;;;;;31.88;53.48;97248.38;5034921;28;20015;-83
2022/06/20 13:11:01;;;;;;;;;;;;;;;31.97;52.59;97254.16;5034863;28;20513;-82